sensor_id;sensor_type;location;lat;lon;timestamp;temperature;humidity
5956;DHT22;3004;48.080;11.600;2022-12-07T00:02:22;1.90;99.90
5956;DHT22;3004;48.080;11.600;2022-12-07T00:04:49;1.90;99.90
5956;DHT22;3004;48.080;11.600;2022-12-07T00:07:16;1.90;99.90
5956;DHT22;3004;48.080;11.600;2022-12-07T00:09:43;1.90;99.90
5956;DHT22;3004;48.080;11.600;2022-12-07T00:12:14;1.90;99.90
5956;DHT22;3004;48.080;11.600;2022-12-07T00:14:47;1.90;99.90
5956;DHT22;3004;48.080;11.600;2022-12-07T00:17:17;1.90;99.90
5956;DHT22;3004;48.080;11.600;2022-12-07T00:19:46;1.90;99.90
5956;DHT22;3004;48.080;11.600;2022-12-07T00:22:14;1.90;99.90
5956;DHT22;3004;48.080;11.600;2022-12-07T00:24:43;1.90;99.90
5956;DHT22;3004;48.080;11.600;2022-12-07T00:27:11;1.90;99.90
5956;DHT22;3004;48.080;11.600;2022-12-07T00:29:38;1.90;99.90
5956;DHT22;3004;48.080;11.600;2022-12-07T00:32:09;1.90;99.90
5956;DHT22;3004;48.080;11.600;2022-12-07T00:34:36;1.80;99.90
5956;DHT22;3004;48.080;11.600;2022-12-07T00:37:07;1.80;99.90
5956;DHT22;3004;48.080;11.600;2022-12-07T00:39:40;1.80;99.90
5956;DHT22;3004;48.080;11.600;2022-12-07T00:42:07;1.80;99.90
5956;DHT22;3004;48.080;11.600;2022-12-07T00:44:41;1.80;99.90
5956;DHT22;3004;48.080;11.600;2022-12-07T00:47:10;1.80;99.90
5956;DHT22;3004;48.080;11.600;2022-12-07T00:49:39;1.80;99.90
5956;DHT22;3004;48.080;11.600;2022-12-07T00:52:08;1.80;99.90
5956;DHT22;3004;48.080;11.600;2022-12-07T00:54:36;1.80;99.90
5956;DHT22;3004;48.080;11.600;2022-12-07T00:57:05;1.80;99.90
5956;DHT22;3004;48.080;11.600;2022-12-07T00:59:34;1.80;99.90
5956;DHT22;3004;48.080;11.600;2022-12-07T01:02:02;1.70;99.90
5956;DHT22;3004;48.080;11.600;2022-12-07T01:04:32;1.70;99.90
5956;DHT22;3004;48.080;11.600;2022-12-07T01:07:00;1.70;99.90
5956;DHT22;3004;48.080;11.600;2022-12-07T01:09:28;1.60;99.90
5956;DHT22;3004;48.080;11.600;2022-12-07T01:12:01;1.60;99.90
5956;DHT22;3004;48.080;11.600;2022-12-07T01:14:31;1.60;99.90
5956;DHT22;3004;48.080;11.600;2022-12-07T01:16:58;1.60;99.90
5956;DHT22;3004;48.080;11.600;2022-12-07T01:19:26;1.50;99.90
5956;DHT22;3004;48.080;11.600;2022-12-07T01:21:54;1.50;99.90
5956;DHT22;3004;48.080;11.600;2022-12-07T01:24:25;1.50;99.90
5956;DHT22;3004;48.080;11.600;2022-12-07T01:26:53;1.50;99.90
5956;DHT22;3004;48.080;11.600;2022-12-07T01:29:25;1.50;99.90
5956;DHT22;3004;48.080;11.600;2022-12-07T01:31:52;1.50;99.90
5956;DHT22;3004;48.080;11.600;2022-12-07T01:34:37;1.50;99.90
5956;DHT22;3004;48.080;11.600;2022-12-07T01:37:18;1.50;99.90
5956;DHT22;3004;48.080;11.600;2022-12-07T01:39:48;1.50;99.90
5956;DHT22;3004;48.080;11.600;2022-12-07T01:42:21;1.50;99.90
5956;DHT22;3004;48.080;11.600;2022-12-07T01:47:55;1.50;99.90
5956;DHT22;3004;48.080;11.600;2022-12-07T01:50:25;1.50;99.90
5956;DHT22;3004;48.080;11.600;2022-12-07T01:52:59;1.50;99.90
5956;DHT22;3004;48.080;11.600;2022-12-07T01:58:40;1.50;99.90
5956;DHT22;3004;48.080;11.600;2022-12-07T02:01:07;1.50;99.90
5956;DHT22;3004;48.080;11.600;2022-12-07T02:03:38;1.50;99.90
5956;DHT22;3004;48.080;11.600;2022-12-07T02:06:09;1.40;99.90
5956;DHT22;3004;48.080;11.600;2022-12-07T02:08:39;1.40;99.90
5956;DHT22;3004;48.080;11.600;2022-12-07T02:11:07;1.40;99.90
5956;DHT22;3004;48.080;11.600;2022-12-07T02:13:38;1.40;99.90
5956;DHT22;3004;48.080;11.600;2022-12-07T02:16:30;1.40;99.90
5956;DHT22;3004;48.080;11.600;2022-12-07T02:19:24;1.40;99.90
5956;DHT22;3004;48.080;11.600;2022-12-07T02:22:05;1.40;99.90
5956;DHT22;3004;48.080;11.600;2022-12-07T02:24:51;1.40;99.90
5956;DHT22;3004;48.080;11.600;2022-12-07T02:27:41;1.40;99.90
5956;DHT22;3004;48.080;11.600;2022-12-07T02:30:17;1.40;99.90
5956;DHT22;3004;48.080;11.600;2022-12-07T02:32:54;1.30;99.90
5956;DHT22;3004;48.080;11.600;2022-12-07T02:35:28;1.40;99.90
5956;DHT22;3004;48.080;11.600;2022-12-07T02:38:02;1.40;99.90
5956;DHT22;3004;48.080;11.600;2022-12-07T02:40:34;1.40;99.90
5956;DHT22;3004;48.080;11.600;2022-12-07T02:43:09;1.40;99.90
5956;DHT22;3004;48.080;11.600;2022-12-07T02:45:40;1.40;99.90
5956;DHT22;3004;48.080;11.600;2022-12-07T02:48:14;1.40;99.90
5956;DHT22;3004;48.080;11.600;2022-12-07T02:50:48;1.40;99.90
5956;DHT22;3004;48.080;11.600;2022-12-07T02:53:32;1.40;99.90
5956;DHT22;3004;48.080;11.600;2022-12-07T02:56:03;1.30;99.90
5956;DHT22;3004;48.080;11.600;2022-12-07T02:58:39;1.30;99.90
5956;DHT22;3004;48.080;11.600;2022-12-07T03:01:18;1.30;99.90
5956;DHT22;3004;48.080;11.600;2022-12-07T03:03:51;1.20;99.90
5956;DHT22;3004;48.080;11.600;2022-12-07T03:06:29;1.20;99.90
5956;DHT22;3004;48.080;11.600;2022-12-07T03:09:07;1.30;99.90
5956;DHT22;3004;48.080;11.600;2022-12-07T03:11:42;1.30;99.90
5956;DHT22;3004;48.080;11.600;2022-12-07T03:14:16;1.30;99.90
5956;DHT22;3004;48.080;11.600;2022-12-07T03:16:52;1.30;99.90
5956;DHT22;3004;48.080;11.600;2022-12-07T03:19:21;1.30;99.90
5956;DHT22;3004;48.080;11.600;2022-12-07T03:21:53;1.20;99.90
5956;DHT22;3004;48.080;11.600;2022-12-07T03:24:51;1.20;99.90
5956;DHT22;3004;48.080;11.600;2022-12-07T03:27:26;1.20;99.90
5956;DHT22;3004;48.080;11.600;2022-12-07T03:30:03;1.20;99.90
5956;DHT22;3004;48.080;11.600;2022-12-07T03:32:37;1.20;99.90
5956;DHT22;3004;48.080;11.600;2022-12-07T03:35:09;1.20;99.90
5956;DHT22;3004;48.080;11.600;2022-12-07T03:37:42;1.30;99.90
5956;DHT22;3004;48.080;11.600;2022-12-07T03:40:19;1.20;99.90
5956;DHT22;3004;48.080;11.600;2022-12-07T03:42:52;1.20;99.90
5956;DHT22;3004;48.080;11.600;2022-12-07T03:45:24;1.20;99.90
5956;DHT22;3004;48.080;11.600;2022-12-07T03:48:11;1.20;99.90
5956;DHT22;3004;48.080;11.600;2022-12-07T03:50:50;1.20;99.90
5956;DHT22;3004;48.080;11.600;2022-12-07T03:53:37;1.20;99.90
5956;DHT22;3004;48.080;11.600;2022-12-07T03:56:08;1.20;99.90
5956;DHT22;3004;48.080;11.600;2022-12-07T03:58:37;1.20;99.90
5956;DHT22;3004;48.080;11.600;2022-12-07T04:01:05;1.20;99.90
5956;DHT22;3004;48.080;11.600;2022-12-07T04:03:36;1.20;99.90
5956;DHT22;3004;48.080;11.600;2022-12-07T04:06:05;1.20;99.90
5956;DHT22;3004;48.080;11.600;2022-12-07T04:08:35;1.20;99.90
5956;DHT22;3004;48.080;11.600;2022-12-07T04:11:02;1.20;99.90
5956;DHT22;3004;48.080;11.600;2022-12-07T04:13:38;1.30;99.90
5956;DHT22;3004;48.080;11.600;2022-12-07T04:16:19;1.30;99.90
5956;DHT22;3004;48.080;11.600;2022-12-07T04:18:56;1.20;99.90
5956;DHT22;3004;48.080;11.600;2022-12-07T04:21:31;1.20;99.90
5956;DHT22;3004;48.080;11.600;2022-12-07T04:23:58;1.30;99.90
5956;DHT22;3004;48.080;11.600;2022-12-07T04:26:25;1.30;99.90
5956;DHT22;3004;48.080;11.600;2022-12-07T04:29:14;1.30;99.90
5956;DHT22;3004;48.080;11.600;2022-12-07T04:31:45;1.30;99.90
5956;DHT22;3004;48.080;11.600;2022-12-07T05:43:15;1.30;99.90
5956;DHT22;3004;48.080;11.600;2022-12-07T05:45:44;1.20;99.90
5956;DHT22;3004;48.080;11.600;2022-12-07T05:48:11;1.30;99.90
5956;DHT22;3004;48.080;11.600;2022-12-07T05:50:39;1.20;99.90
5956;DHT22;3004;48.080;11.600;2022-12-07T05:53:13;1.30;99.90
5956;DHT22;3004;48.080;11.600;2022-12-07T05:55:42;1.30;99.90
5956;DHT22;3004;48.080;11.600;2022-12-07T05:58:28;1.20;99.90
5956;DHT22;3004;48.080;11.600;2022-12-07T06:01:13;1.20;99.90
5956;DHT22;3004;48.080;11.600;2022-12-07T06:03:49;1.20;99.90
5956;DHT22;3004;48.080;11.600;2022-12-07T06:06:22;1.20;99.90
5956;DHT22;3004;48.080;11.600;2022-12-07T06:08:50;1.20;99.90
5956;DHT22;3004;48.080;11.600;2022-12-07T06:11:30;1.20;99.90
5956;DHT22;3004;48.080;11.600;2022-12-07T06:18:04;1.20;99.90
5956;DHT22;3004;48.080;11.600;2022-12-07T06:24:11;1.10;99.90
5956;DHT22;3004;48.080;11.600;2022-12-07T06:26:41;1.10;99.90
5956;DHT22;3004;48.080;11.600;2022-12-07T06:29:13;1.10;99.90
5956;DHT22;3004;48.080;11.600;2022-12-07T06:31:53;1.10;99.90
5956;DHT22;3004;48.080;11.600;2022-12-07T06:34:27;1.10;99.90
5956;DHT22;3004;48.080;11.600;2022-12-07T06:37:19;1.10;99.90
5956;DHT22;3004;48.080;11.600;2022-12-07T06:43:12;1.10;99.90
5956;DHT22;3004;48.080;11.600;2022-12-07T06:45:59;1.10;99.90
5956;DHT22;3004;48.080;11.600;2022-12-07T06:48:41;1.10;99.90
5956;DHT22;3004;48.080;11.600;2022-12-07T06:51:24;1.10;99.90
5956;DHT22;3004;48.080;11.600;2022-12-07T06:54:13;1.20;99.90
5956;DHT22;3004;48.080;11.600;2022-12-07T07:00:04;1.10;99.90
5956;DHT22;3004;48.080;11.600;2022-12-07T07:06:07;1.10;99.90
5956;DHT22;3004;48.080;11.600;2022-12-07T07:09:01;1.10;99.90
5956;DHT22;3004;48.080;11.600;2022-12-07T07:15:03;1.10;99.90
5956;DHT22;3004;48.080;11.600;2022-12-07T07:17:56;1.10;99.90
5956;DHT22;3004;48.080;11.600;2022-12-07T07:20:42;1.10;99.90
5956;DHT22;3004;48.080;11.600;2022-12-07T07:47:44;1.10;99.90
5956;DHT22;3004;48.080;11.600;2022-12-07T07:50:18;1.10;99.90
5956;DHT22;3004;48.080;11.600;2022-12-07T07:52:52;1.10;99.90
5956;DHT22;3004;48.080;11.600;2022-12-07T07:59:01;1.10;99.90
5956;DHT22;3004;48.080;11.600;2022-12-07T08:05:16;1.10;99.90
5956;DHT22;3004;48.080;11.600;2022-12-07T10:19:34;2.50;99.90
5956;DHT22;3004;48.080;11.600;2022-12-07T10:22:16;2.60;99.90
5956;DHT22;3004;48.080;11.600;2022-12-07T10:24:48;2.50;99.90
5956;DHT22;3004;48.080;11.600;2022-12-07T10:27:22;2.50;99.90
5956;DHT22;3004;48.080;11.600;2022-12-07T10:29:51;2.60;99.90
5956;DHT22;3004;48.080;11.600;2022-12-07T10:35:50;2.80;99.90
5956;DHT22;3004;48.080;11.600;2022-12-07T10:38:22;2.90;99.90
5956;DHT22;3004;48.080;11.600;2022-12-07T10:41:04;3.00;99.90
5956;DHT22;3004;48.080;11.600;2022-12-07T10:43:34;2.90;99.90
5956;DHT22;3004;48.080;11.600;2022-12-07T10:52:45;3.00;99.90
5956;DHT22;3004;48.080;11.600;2022-12-07T10:55:25;2.90;99.90
5956;DHT22;3004;48.080;11.600;2022-12-07T11:00:49;2.80;99.90
5956;DHT22;3004;48.080;11.600;2022-12-07T11:07:01;2.80;99.90
5956;DHT22;3004;48.080;11.600;2022-12-07T11:09:49;2.90;99.90
5956;DHT22;3004;48.080;11.600;2022-12-07T11:12:52;3.10;99.90
5956;DHT22;3004;48.080;11.600;2022-12-07T11:15:31;3.00;99.90
5956;DHT22;3004;48.080;11.600;2022-12-07T11:18:06;3.00;99.90
5956;DHT22;3004;48.080;11.600;2022-12-07T11:20:42;3.10;99.90
5956;DHT22;3004;48.080;11.600;2022-12-07T11:55:39;3.80;99.90
5956;DHT22;3004;48.080;11.600;2022-12-07T12:38:52;3.60;99.90
5956;DHT22;3004;48.080;11.600;2022-12-07T12:51:53;3.40;99.90
5956;DHT22;3004;48.080;11.600;2022-12-07T12:55:29;3.40;99.90
5956;DHT22;3004;48.080;11.600;2022-12-07T13:02:26;3.50;99.90
5956;DHT22;3004;48.080;11.600;2022-12-07T13:05:42;3.40;99.90
5956;DHT22;3004;48.080;11.600;2022-12-07T14:57:36;2.40;99.90
5956;DHT22;3004;48.080;11.600;2022-12-07T15:05:58;2.10;99.90
5956;DHT22;3004;48.080;11.600;2022-12-07T15:07:21;2.00;99.90
5956;DHT22;3004;48.080;11.600;2022-12-07T15:10:32;1.90;99.90
5956;DHT22;3004;48.080;11.600;2022-12-07T15:27:30;1.40;99.90
5956;DHT22;3004;48.080;11.600;2022-12-07T15:30:21;1.20;99.90
5956;DHT22;3004;48.080;11.600;2022-12-07T15:36:41;1.10;99.90
5956;DHT22;3004;48.080;11.600;2022-12-07T15:40:52;0.90;99.90
5956;DHT22;3004;48.080;11.600;2022-12-07T16:45:25;-0.10;99.90
5956;DHT22;3004;48.080;11.600;2022-12-07T17:25:19;-0.20;99.90
5956;DHT22;3004;48.080;11.600;2022-12-07T20:18:09;0.20;99.90
5956;DHT22;3004;48.080;11.600;2022-12-07T20:24:55;0.20;99.90
5956;DHT22;3004;48.080;11.600;2022-12-07T20:27:50;0.10;99.90
5956;DHT22;3004;48.080;11.600;2022-12-07T20:37:14;0.10;99.90
5956;DHT22;3004;48.080;11.600;2022-12-07T20:50:24;0.00;99.90
5956;DHT22;3004;48.080;11.600;2022-12-07T20:53:43;0.10;99.90
5956;DHT22;3004;48.080;11.600;2022-12-07T21:00:09;0.10;99.90
5956;DHT22;3004;48.080;11.600;2022-12-07T21:06:46;0.10;99.90
5956;DHT22;3004;48.080;11.600;2022-12-07T21:25:57;0.00;99.90
5956;DHT22;3004;48.080;11.600;2022-12-07T21:29:02;0.10;99.90
5956;DHT22;3004;48.080;11.600;2022-12-07T21:31:45;0.00;99.90
5956;DHT22;3004;48.080;11.600;2022-12-07T21:37:56;0.00;99.90
5956;DHT22;3004;48.080;11.600;2022-12-07T21:40:47;0.00;99.90
